sensor_id;sensor_type;location;lat;lon;timestamp;P1;P2;P0
50587;PMS7003;70782;50.514;30.816;2023-11-22T00:01:03;38.30;31.00;21.00
50587;PMS7003;70782;50.514;30.816;2023-11-22T00:02:06;35.70;29.70;19.00
50587;PMS7003;70782;50.514;30.816;2023-11-22T00:03:08;34.30;30.00;20.50
50587;PMS7003;70782;50.514;30.816;2023-11-22T00:04:11;30.80;28.60;18.50
50587;PMS7003;70782;50.514;30.816;2023-11-22T00:05:14;29.30;26.60;17.70
50587;PMS7003;70782;50.514;30.816;2023-11-22T00:06:17;19.40;15.40;2.90
50587;PMS7003;70782;50.514;30.816;2023-11-22T00:07:20;31.70;26.80;18.10
50587;PMS7003;70782;50.514;30.816;2023-11-22T00:08:22;30.60;27.90;17.90
50587;PMS7003;70782;50.514;30.816;2023-11-22T00:09:25;33.10;28.70;17.10
50587;PMS7003;70782;50.514;30.816;2023-11-22T00:10:28;29.64;26.36;16.27
50587;PMS7003;70782;50.514;30.816;2023-11-22T00:11:30;30.60;27.50;16.80
50587;PMS7003;70782;50.514;30.816;2023-11-22T00:12:33;32.20;26.90;17.50
50587;PMS7003;70782;50.514;30.816;2023-11-22T00:13:35;30.20;25.80;16.20
50587;PMS7003;70782;50.514;30.816;2023-11-22T00:14:38;28.90;24.20;15.10
50587;PMS7003;70782;50.514;30.816;2023-11-22T00:15:40;28.20;24.70;15.80
50587;PMS7003;70782;50.514;30.816;2023-11-22T00:16:43;27.45;25.27;17.45
50587;PMS7003;70782;50.514;30.816;2023-11-22T00:17:45;24.30;22.30;10.60
50587;PMS7003;70782;50.514;30.816;2023-11-22T00:18:48;25.70;22.50;15.30
50587;PMS7003;70782;50.514;30.816;2023-11-22T00:19:51;24.40;22.40;14.40
50587;PMS7003;70782;50.514;30.816;2023-11-22T00:20:54;23.60;22.30;14.70
50587;PMS7003;70782;50.514;30.816;2023-11-22T00:21:56;25.40;23.50;15.50
50587;PMS7003;70782;50.514;30.816;2023-11-22T00:22:59;26.80;25.30;16.60
50587;PMS7003;70782;50.514;30.816;2023-11-22T00:24:01;25.50;24.20;16.60
50587;PMS7003;70782;50.514;30.816;2023-11-22T00:25:04;28.30;25.60;15.50
50587;PMS7003;70782;50.514;30.816;2023-11-22T00:26:08;21.50;17.20;11.40
50587;PMS7003;70782;50.514;30.816;2023-11-22T00:27:11;29.27;26.00;16.64
50587;PMS7003;70782;50.514;30.816;2023-11-22T00:28:13;31.20;28.70;17.40
50587;PMS7003;70782;50.514;30.816;2023-11-22T00:29:16;26.20;24.40;16.10
50587;PMS7003;70782;50.514;30.816;2023-11-22T00:30:19;28.90;26.50;16.60
50587;PMS7003;70782;50.514;30.816;2023-11-22T00:31:21;29.00;24.80;16.50
50587;PMS7003;70782;50.514;30.816;2023-11-22T00:32:25;30.70;28.10;17.30
50587;PMS7003;70782;50.514;30.816;2023-11-22T00:33:27;25.64;23.82;16.09
50587;PMS7003;70782;50.514;30.816;2023-11-22T00:34:31;29.30;25.20;15.00
50587;PMS7003;70782;50.514;30.816;2023-11-22T00:35:34;27.90;25.60;16.90
50587;PMS7003;70782;50.514;30.816;2023-11-22T00:36:36;27.70;25.70;15.90
50587;PMS7003;70782;50.514;30.816;2023-11-22T00:37:39;28.90;26.90;17.30
50587;PMS7003;70782;50.514;30.816;2023-11-22T00:38:42;27.82;26.73;17.09
50587;PMS7003;70782;50.514;30.816;2023-11-22T00:39:44;25.20;22.80;14.40
50587;PMS7003;70782;50.514;30.816;2023-11-22T00:40:47;26.70;24.50;15.30
50587;PMS7003;70782;50.514;30.816;2023-11-22T00:41:50;27.60;24.70;16.40
50587;PMS7003;70782;50.514;30.816;2023-11-22T00:42:52;28.50;25.50;16.40
50587;PMS7003;70782;50.514;30.816;2023-11-22T00:43:55;28.50;25.90;17.90
50587;PMS7003;70782;50.514;30.816;2023-11-22T00:44:57;27.30;25.00;14.80
50587;PMS7003;70782;50.514;30.816;2023-11-22T00:46:00;28.90;27.10;18.10
50587;PMS7003;70782;50.514;30.816;2023-11-22T00:47:03;30.30;28.10;16.40
50587;PMS7003;70782;50.514;30.816;2023-11-22T00:48:06;26.50;26.20;17.30
50587;PMS7003;70782;50.514;30.816;2023-11-22T00:49:08;31.20;26.40;17.70
50587;PMS7003;70782;50.514;30.816;2023-11-22T00:50:11;28.30;27.70;17.50
50587;PMS7003;70782;50.514;30.816;2023-11-22T00:51:14;30.60;28.70;17.20
50587;PMS7003;70782;50.514;30.816;2023-11-22T00:52:16;30.40;25.90;17.20
50587;PMS7003;70782;50.514;30.816;2023-11-22T00:53:19;30.00;28.40;17.10
50587;PMS7003;70782;50.514;30.816;2023-11-22T00:54:21;30.60;27.10;18.30
50587;PMS7003;70782;50.514;30.816;2023-11-22T00:55:24;28.00;27.00;17.00
50587;PMS7003;70782;50.514;30.816;2023-11-22T00:56:27;29.00;26.80;17.10
50587;PMS7003;70782;50.514;30.816;2023-11-22T00:57:29;30.30;25.30;16.80
50587;PMS7003;70782;50.514;30.816;2023-11-22T00:58:31;33.90;28.00;18.10
50587;PMS7003;70782;50.514;30.816;2023-11-22T00:59:34;31.30;27.20;19.00
50587;PMS7003;70782;50.514;30.816;2023-11-22T01:00:36;31.80;29.30;17.90
50587;PMS7003;70782;50.514;30.816;2023-11-22T01:01:39;25.20;23.30;14.60
50587;PMS7003;70782;50.514;30.816;2023-11-22T01:02:42;35.70;30.30;20.40
50587;PMS7003;70782;50.514;30.816;2023-11-22T01:03:45;34.40;30.90;19.40
50587;PMS7003;70782;50.514;30.816;2023-11-22T01:04:48;28.50;27.90;19.00
50587;PMS7003;70782;50.514;30.816;2023-11-22T01:05:51;34.50;29.00;19.20
50587;PMS7003;70782;50.514;30.816;2023-11-22T01:06:53;28.20;26.80;13.50
50587;PMS7003;70782;50.514;30.816;2023-11-22T01:07:56;34.80;31.30;20.40
50587;PMS7003;70782;50.514;30.816;2023-11-22T01:08:59;30.90;29.20;17.20
50587;PMS7003;70782;50.514;30.816;2023-11-22T01:10:01;30.50;29.30;19.50
50587;PMS7003;70782;50.514;30.816;2023-11-22T01:11:04;33.70;28.10;18.10
50587;PMS7003;70782;50.514;30.816;2023-11-22T01:12:07;28.90;26.30;20.70
50587;PMS7003;70782;50.514;30.816;2023-11-22T01:13:10;33.50;28.70;18.90
50587;PMS7003;70782;50.514;30.816;2023-11-22T01:14:12;38.70;33.60;21.90
50587;PMS7003;70782;50.514;30.816;2023-11-22T01:15:15;34.80;30.50;15.10
50587;PMS7003;70782;50.514;30.816;2023-11-22T01:16:18;31.30;29.60;17.10
50587;PMS7003;70782;50.514;30.816;2023-11-22T01:17:20;39.20;35.60;21.70
50587;PMS7003;70782;50.514;30.816;2023-11-22T01:18:23;36.80;33.60;22.20
50587;PMS7003;70782;50.514;30.816;2023-11-22T01:19:26;34.40;32.90;21.50
50587;PMS7003;70782;50.514;30.816;2023-11-22T01:20:28;39.60;32.60;21.00
50587;PMS7003;70782;50.514;30.816;2023-11-22T01:21:31;35.00;31.00;20.20
50587;PMS7003;70782;50.514;30.816;2023-11-22T01:22:33;34.80;31.00;22.00
50587;PMS7003;70782;50.514;30.816;2023-11-22T01:23:36;36.60;32.10;21.00
50587;PMS7003;70782;50.514;30.816;2023-11-22T01:24:38;41.70;33.60;22.40
50587;PMS7003;70782;50.514;30.816;2023-11-22T01:25:41;32.30;29.80;21.70
50587;PMS7003;70782;50.514;30.816;2023-11-22T01:26:43;32.20;30.60;18.30
50587;PMS7003;70782;50.514;30.816;2023-11-22T01:27:46;33.30;31.00;20.80
50587;PMS7003;70782;50.514;30.816;2023-11-22T01:28:48;19.00;18.70;13.70
50587;PMS7003;70782;50.514;30.816;2023-11-22T01:29:51;37.20;32.50;19.70
50587;PMS7003;70782;50.514;30.816;2023-11-22T01:30:53;20.90;18.10;6.90
50587;PMS7003;70782;50.514;30.816;2023-11-22T01:31:56;38.40;33.20;19.60
50587;PMS7003;70782;50.514;30.816;2023-11-22T01:32:59;41.40;36.70;22.30
50587;PMS7003;70782;50.514;30.816;2023-11-22T01:34:01;37.70;35.40;19.90
50587;PMS7003;70782;50.514;30.816;2023-11-22T01:35:04;39.40;32.90;20.50
50587;PMS7003;70782;50.514;30.816;2023-11-22T01:36:08;32.70;31.90;19.40
50587;PMS7003;70782;50.514;30.816;2023-11-22T01:37:10;36.00;33.50;20.10
50587;PMS7003;70782;50.514;30.816;2023-11-22T01:38:12;38.90;35.10;20.60
50587;PMS7003;70782;50.514;30.816;2023-11-22T01:39:15;38.00;32.10;17.80
50587;PMS7003;70782;50.514;30.816;2023-11-22T01:40:18;32.82;28.91;17.64
50587;PMS7003;70782;50.514;30.816;2023-11-22T01:41:21;33.30;31.10;19.20
50587;PMS7003;70782;50.514;30.816;2023-11-22T01:42:24;33.91;30.27;18.82
50587;PMS7003;70782;50.514;30.816;2023-11-22T01:43:26;35.30;29.90;20.00
50587;PMS7003;70782;50.514;30.816;2023-11-22T01:44:29;37.40;32.10;19.50
50587;PMS7003;70782;50.514;30.816;2023-11-22T01:45:31;33.70;33.30;21.70
50587;PMS7003;70782;50.514;30.816;2023-11-22T01:46:34;35.00;31.80;19.80
50587;PMS7003;70782;50.514;30.816;2023-11-22T01:47:37;35.55;32.64;21.64
50587;PMS7003;70782;50.514;30.816;2023-11-22T01:48:40;27.70;20.60;13.30
50587;PMS7003;70782;50.514;30.816;2023-11-22T01:49:43;38.20;30.30;21.10
50587;PMS7003;70782;50.514;30.816;2023-11-22T01:50:46;43.50;34.90;21.40
50587;PMS7003;70782;50.514;30.816;2023-11-22T01:51:49;41.20;37.40;23.30
50587;PMS7003;70782;50.514;30.816;2023-11-22T01:52:52;41.10;36.10;23.50
50587;PMS7003;70782;50.514;30.816;2023-11-22T01:53:55;48.80;42.10;24.90
50587;PMS7003;70782;50.514;30.816;2023-11-22T01:54:58;38.30;36.20;22.80
50587;PMS7003;70782;50.514;30.816;2023-11-22T01:56:04;42.90;38.60;23.90
50587;PMS7003;70782;50.514;30.816;2023-11-22T01:57:07;49.80;41.60;26.30
50587;PMS7003;70782;50.514;30.816;2023-11-22T01:58:09;44.60;39.20;24.10
50587;PMS7003;70782;50.514;30.816;2023-11-22T01:59:12;44.60;39.10;24.90
50587;PMS7003;70782;50.514;30.816;2023-11-22T02:00:17;46.50;39.60;23.60
50587;PMS7003;70782;50.514;30.816;2023-11-22T02:01:20;49.70;40.20;24.80
50587;PMS7003;70782;50.514;30.816;2023-11-22T02:02:23;42.50;38.20;23.40
50587;PMS7003;70782;50.514;30.816;2023-11-22T02:03:26;41.00;36.20;21.70
50587;PMS7003;70782;50.514;30.816;2023-11-22T02:04:29;38.20;35.80;20.90
50587;PMS7003;70782;50.514;30.816;2023-11-22T02:05:31;41.40;33.30;21.80
50587;PMS7003;70782;50.514;30.816;2023-11-22T02:06:34;45.20;37.70;23.20
50587;PMS7003;70782;50.514;30.816;2023-11-22T02:07:37;45.90;40.40;24.90
50587;PMS7003;70782;50.514;30.816;2023-11-22T02:08:40;35.50;28.90;10.70
50587;PMS7003;70782;50.514;30.816;2023-11-22T02:09:42;41.00;38.70;22.90
50587;PMS7003;70782;50.514;30.816;2023-11-22T02:10:45;41.30;35.50;22.70
50587;PMS7003;70782;50.514;30.816;2023-11-22T02:11:48;37.91;35.36;21.27
50587;PMS7003;70782;50.514;30.816;2023-11-22T02:12:51;42.90;37.60;22.30
50587;PMS7003;70782;50.514;30.816;2023-11-22T02:13:53;41.40;37.00;23.10
50587;PMS7003;70782;50.514;30.816;2023-11-22T02:14:56;37.20;33.00;20.60
50587;PMS7003;70782;50.514;30.816;2023-11-22T02:15:58;37.20;31.60;20.20
50587;PMS7003;70782;50.514;30.816;2023-11-22T02:17:01;40.30;36.50;21.00
50587;PMS7003;70782;50.514;30.816;2023-11-22T02:18:03;34.50;32.00;17.10
50587;PMS7003;70782;50.514;30.816;2023-11-22T02:19:11;36.30;31.50;20.40
50587;PMS7003;70782;50.514;30.816;2023-11-22T02:20:19;35.40;29.90;17.30
50587;PMS7003;70782;50.514;30.816;2023-11-22T02:21:21;35.50;32.10;18.90
50587;PMS7003;70782;50.514;30.816;2023-11-22T02:22:24;34.40;32.80;21.40
50587;PMS7003;70782;50.514;30.816;2023-11-22T02:23:26;43.00;36.10;22.90
50587;PMS7003;70782;50.514;30.816;2023-11-22T02:24:29;38.50;34.30;21.60
50587;PMS7003;70782;50.514;30.816;2023-11-22T02:25:32;33.70;28.50;18.30
50587;PMS7003;70782;50.514;30.816;2023-11-22T02:26:34;36.70;29.70;18.60
50587;PMS7003;70782;50.514;30.816;2023-11-22T02:27:37;33.90;30.30;19.30
50587;PMS7003;70782;50.514;30.816;2023-11-22T02:28:40;36.18;31.09;20.27
50587;PMS7003;70782;50.514;30.816;2023-11-22T02:29:42;31.50;27.90;17.30
50587;PMS7003;70782;50.514;30.816;2023-11-22T02:30:45;26.10;23.30;14.50
50587;PMS7003;70782;50.514;30.816;2023-11-22T02:31:48;31.00;28.90;18.30
50587;PMS7003;70782;50.514;30.816;2023-11-22T02:32:50;30.50;28.70;19.50
50587;PMS7003;70782;50.514;30.816;2023-11-22T02:33:53;31.80;28.50;18.90
50587;PMS7003;70782;50.514;30.816;2023-11-22T02:34:56;34.40;28.90;17.20
50587;PMS7003;70782;50.514;30.816;2023-11-22T02:35:58;33.70;29.50;19.80
50587;PMS7003;70782;50.514;30.816;2023-11-22T02:37:01;24.10;23.50;14.30
50587;PMS7003;70782;50.514;30.816;2023-11-22T02:38:05;35.90;29.70;19.90
50587;PMS7003;70782;50.514;30.816;2023-11-22T02:39:08;30.00;27.70;17.40
50587;PMS7003;70782;50.514;30.816;2023-11-22T02:40:17;32.40;27.50;16.30
50587;PMS7003;70782;50.514;30.816;2023-11-22T02:41:21;37.90;32.60;18.00
50587;PMS7003;70782;50.514;30.816;2023-11-22T02:42:23;35.09;31.64;19.45
50587;PMS7003;70782;50.514;30.816;2023-11-22T02:43:26;29.10;26.20;17.20
50587;PMS7003;70782;50.514;30.816;2023-11-22T02:44:29;32.00;30.40;20.20
50587;PMS7003;70782;50.514;30.816;2023-11-22T02:45:31;37.50;32.10;19.30
50587;PMS7003;70782;50.514;30.816;2023-11-22T02:46:34;29.90;26.20;18.30
50587;PMS7003;70782;50.514;30.816;2023-11-22T02:47:37;31.90;30.20;18.40
50587;PMS7003;70782;50.514;30.816;2023-11-22T02:48:39;33.40;27.90;18.20
50587;PMS7003;70782;50.514;30.816;2023-11-22T02:49:42;34.80;30.80;19.20
50587;PMS7003;70782;50.514;30.816;2023-11-22T02:50:45;30.10;27.90;17.40
50587;PMS7003;70782;50.514;30.816;2023-11-22T02:51:47;31.60;27.00;16.50
50587;PMS7003;70782;50.514;30.816;2023-11-22T02:52:49;29.70;29.10;17.20
50587;PMS7003;70782;50.514;30.816;2023-11-22T02:53:53;27.40;26.30;17.20
50587;PMS7003;70782;50.514;30.816;2023-11-22T02:54:56;26.70;24.30;15.30
50587;PMS7003;70782;50.514;30.816;2023-11-22T02:56:01;21.50;19.20;16.10
50587;PMS7003;70782;50.514;30.816;2023-11-22T02:57:04;24.10;23.70;15.40
50587;PMS7003;70782;50.514;30.816;2023-11-22T02:58:06;28.70;24.90;15.20
50587;PMS7003;70782;50.514;30.816;2023-11-22T02:59:09;26.90;24.60;16.60
50587;PMS7003;70782;50.514;30.816;2023-11-22T03:00:14;29.90;25.70;17.40
50587;PMS7003;70782;50.514;30.816;2023-11-22T03:01:16;32.55;27.91;18.09
50587;PMS7003;70782;50.514;30.816;2023-11-22T03:02:20;30.00;28.00;16.90
50587;PMS7003;70782;50.514;30.816;2023-11-22T03:03:23;28.00;24.80;17.00
50587;PMS7003;70782;50.514;30.816;2023-11-22T03:04:26;28.91;23.91;14.55
50587;PMS7003;70782;50.514;30.816;2023-11-22T03:05:28;29.90;25.50;16.60
50587;PMS7003;70782;50.514;30.816;2023-11-22T03:06:31;34.30;30.60;18.90
50587;PMS7003;70782;50.514;30.816;2023-11-22T03:07:33;31.00;24.60;15.70
50587;PMS7003;70782;50.514;30.816;2023-11-22T03:08:36;34.10;29.80;19.00
50587;PMS7003;70782;50.514;30.816;2023-11-22T03:09:38;32.00;28.70;17.60
50587;PMS7003;70782;50.514;30.816;2023-11-22T03:10:41;26.80;25.20;17.10
50587;PMS7003;70782;50.514;30.816;2023-11-22T03:11:44;26.60;24.00;17.60
50587;PMS7003;70782;50.514;30.816;2023-11-22T03:12:46;29.20;27.20;17.80
50587;PMS7003;70782;50.514;30.816;2023-11-22T03:13:49;35.30;30.20;18.20
50587;PMS7003;70782;50.514;30.816;2023-11-22T03:14:51;30.20;28.90;16.50
50587;PMS7003;70782;50.514;30.816;2023-11-22T03:15:54;30.40;29.20;17.50
50587;PMS7003;70782;50.514;30.816;2023-11-22T03:16:57;28.70;27.40;18.50
50587;PMS7003;70782;50.514;30.816;2023-11-22T03:17:59;34.80;31.00;19.40
50587;PMS7003;70782;50.514;30.816;2023-11-22T03:19:03;30.30;27.20;17.70
50587;PMS7003;70782;50.514;30.816;2023-11-22T03:20:06;33.70;29.90;19.40
50587;PMS7003;70782;50.514;30.816;2023-11-22T03:21:09;33.60;27.90;17.60
50587;PMS7003;70782;50.514;30.816;2023-11-22T03:22:12;28.80;25.60;16.10
50587;PMS7003;70782;50.514;30.816;2023-11-22T03:23:14;29.50;27.30;17.50
50587;PMS7003;70782;50.514;30.816;2023-11-22T03:24:17;30.20;27.30;17.40
50587;PMS7003;70782;50.514;30.816;2023-11-22T03:25:19;25.20;22.10;16.70
50587;PMS7003;70782;50.514;30.816;2023-11-22T03:26:22;31.00;26.40;18.20
50587;PMS7003;70782;50.514;30.816;2023-11-22T03:27:24;33.70;28.60;19.60
50587;PMS7003;70782;50.514;30.816;2023-11-22T03:28:27;29.20;25.90;18.00
50587;PMS7003;70782;50.514;30.816;2023-11-22T03:29:29;33.80;28.60;16.40
50587;PMS7003;70782;50.514;30.816;2023-11-22T03:30:32;28.70;26.90;17.80
50587;PMS7003;70782;50.514;30.816;2023-11-22T03:31:34;30.00;28.70;19.10
50587;PMS7003;70782;50.514;30.816;2023-11-22T03:32:40;28.80;25.40;16.50
50587;PMS7003;70782;50.514;30.816;2023-11-22T03:33:43;30.40;28.10;18.50
50587;PMS7003;70782;50.514;30.816;2023-11-22T03:34:45;29.10;27.70;17.30
50587;PMS7003;70782;50.514;30.816;2023-11-22T03:35:48;26.80;24.50;16.00
50587;PMS7003;70782;50.514;30.816;2023-11-22T03:36:50;28.40;27.50;17.20
50587;PMS7003;70782;50.514;30.816;2023-11-22T03:37:53;30.50;28.90;18.20
50587;PMS7003;70782;50.514;30.816;2023-11-22T03:38:55;30.50;29.40;18.70
50587;PMS7003;70782;50.514;30.816;2023-11-22T03:39:58;35.60;30.10;19.00
50587;PMS7003;70782;50.514;30.816;2023-11-22T03:41:00;32.60;30.00;18.40
50587;PMS7003;70782;50.514;30.816;2023-11-22T03:42:03;31.50;27.30;17.60
50587;PMS7003;70782;50.514;30.816;2023-11-22T03:43:06;28.70;27.20;17.90
50587;PMS7003;70782;50.514;30.816;2023-11-22T03:44:09;32.40;27.60;16.80
50587;PMS7003;70782;50.514;30.816;2023-11-22T03:45:12;27.20;26.20;16.80
50587;PMS7003;70782;50.514;30.816;2023-11-22T03:46:14;28.80;27.90;18.00
50587;PMS7003;70782;50.514;30.816;2023-11-22T03:47:17;31.00;28.20;18.20
50587;PMS7003;70782;50.514;30.816;2023-11-22T03:48:21;29.90;27.80;16.40
50587;PMS7003;70782;50.514;30.816;2023-11-22T03:49:24;27.40;24.50;16.50
50587;PMS7003;70782;50.514;30.816;2023-11-22T03:50:27;34.20;30.30;19.10
50587;PMS7003;70782;50.514;30.816;2023-11-22T03:51:29;33.60;29.30;17.90
50587;PMS7003;70782;50.514;30.816;2023-11-22T03:52:32;30.20;29.00;18.40
50587;PMS7003;70782;50.514;30.816;2023-11-22T03:53:34;37.40;32.40;19.00
50587;PMS7003;70782;50.514;30.816;2023-11-22T03:54:37;30.30;28.90;18.30
50587;PMS7003;70782;50.514;30.816;2023-11-22T03:55:40;29.10;27.80;15.90
50587;PMS7003;70782;50.514;30.816;2023-11-22T03:56:43;31.00;27.70;17.50
50587;PMS7003;70782;50.514;30.816;2023-11-22T03:57:45;33.50;27.00;16.30
50587;PMS7003;70782;50.514;30.816;2023-11-22T03:58:48;32.10;29.10;17.30
50587;PMS7003;70782;50.514;30.816;2023-11-22T03:59:50;34.30;26.90;15.50
50587;PMS7003;70782;50.514;30.816;2023-11-22T04:00:53;33.20;27.10;17.30
50587;PMS7003;70782;50.514;30.816;2023-11-22T04:01:55;29.00;25.60;16.20
50587;PMS7003;70782;50.514;30.816;2023-11-22T04:02:58;28.40;27.10;16.30
50587;PMS7003;70782;50.514;30.816;2023-11-22T04:04:00;52.40;40.00;24.60
50587;PMS7003;70782;50.514;30.816;2023-11-22T04:05:03;57.50;45.80;28.10
50587;PMS7003;70782;50.514;30.816;2023-11-22T04:06:08;109.80;94.30;57.70
50587;PMS7003;70782;50.514;30.816;2023-11-22T04:07:10;265.10;223.90;115.20
50587;PMS7003;70782;50.514;30.816;2023-11-22T04:08:13;120.80;104.60;59.20
50587;PMS7003;70782;50.514;30.816;2023-11-22T04:09:15;73.10;57.00;34.80
50587;PMS7003;70782;50.514;30.816;2023-11-22T04:10:19;60.55;49.00;30.18
50587;PMS7003;70782;50.514;30.816;2023-11-22T04:11:21;52.20;43.10;26.80
50587;PMS7003;70782;50.514;30.816;2023-11-22T04:12:24;48.60;40.10;25.50
50587;PMS7003;70782;50.514;30.816;2023-11-22T04:13:27;34.70;31.10;19.00
50587;PMS7003;70782;50.514;30.816;2023-11-22T04:14:29;37.30;33.80;21.10
50587;PMS7003;70782;50.514;30.816;2023-11-22T04:15:32;32.30;30.50;18.00
50587;PMS7003;70782;50.514;30.816;2023-11-22T04:16:36;31.27;27.82;17.45
50587;PMS7003;70782;50.514;30.816;2023-11-22T04:17:38;30.30;26.80;16.60
50587;PMS7003;70782;50.514;30.816;2023-11-22T04:18:41;28.90;24.00;14.40
50587;PMS7003;70782;50.514;30.816;2023-11-22T04:19:44;24.20;22.30;15.70
50587;PMS7003;70782;50.514;30.816;2023-11-22T04:20:47;34.40;29.50;18.30
50587;PMS7003;70782;50.514;30.816;2023-11-22T04:21:50;30.80;27.70;17.20
50587;PMS7003;70782;50.514;30.816;2023-11-22T04:22:52;32.40;30.00;18.40
50587;PMS7003;70782;50.514;30.816;2023-11-22T04:23:55;32.50;28.60;18.60
50587;PMS7003;70782;50.514;30.816;2023-11-22T04:24:57;33.10;28.60;17.50
50587;PMS7003;70782;50.514;30.816;2023-11-22T04:26:00;34.00;31.20;20.80
50587;PMS7003;70782;50.514;30.816;2023-11-22T04:27:03;37.64;35.36;19.45
50587;PMS7003;70782;50.514;30.816;2023-11-22T04:28:06;29.36;26.64;17.73
50587;PMS7003;70782;50.514;30.816;2023-11-22T04:29:08;33.30;27.10;18.50
50587;PMS7003;70782;50.514;30.816;2023-11-22T04:30:12;32.91;30.73;19.45
50587;PMS7003;70782;50.514;30.816;2023-11-22T04:31:14;37.60;32.30;18.40
50587;PMS7003;70782;50.514;30.816;2023-11-22T04:32:17;31.90;31.30;19.50
50587;PMS7003;70782;50.514;30.816;2023-11-22T04:33:19;36.60;32.90;21.90
50587;PMS7003;70782;50.514;30.816;2023-11-22T04:34:23;31.80;28.40;17.60
50587;PMS7003;70782;50.514;30.816;2023-11-22T04:35:25;33.40;32.90;20.60
50587;PMS7003;70782;50.514;30.816;2023-11-22T04:36:28;38.60;33.40;20.20
50587;PMS7003;70782;50.514;30.816;2023-11-22T04:37:30;39.70;31.60;17.90
50587;PMS7003;70782;50.514;30.816;2023-11-22T04:38:33;33.60;30.70;20.80
50587;PMS7003;70782;50.514;30.816;2023-11-22T04:39:35;36.60;31.00;19.20
50587;PMS7003;70782;50.514;30.816;2023-11-22T04:40:38;37.70;32.40;20.90
50587;PMS7003;70782;50.514;30.816;2023-11-22T04:41:40;42.20;34.80;21.60
50587;PMS7003;70782;50.514;30.816;2023-11-22T04:42:43;34.50;32.20;21.70
50587;PMS7003;70782;50.514;30.816;2023-11-22T04:43:45;41.80;36.90;21.20
50587;PMS7003;70782;50.514;30.816;2023-11-22T04:44:48;44.60;36.00;19.30
50587;PMS7003;70782;50.514;30.816;2023-11-22T04:45:50;40.00;35.70;21.30
50587;PMS7003;70782;50.514;30.816;2023-11-22T04:46:53;42.00;35.20;19.10
50587;PMS7003;70782;50.514;30.816;2023-11-22T04:47:55;43.30;37.50;23.10
50587;PMS7003;70782;50.514;30.816;2023-11-22T04:48:58;31.30;26.70;19.50
50587;PMS7003;70782;50.514;30.816;2023-11-22T04:50:01;40.70;37.10;20.90
50587;PMS7003;70782;50.514;30.816;2023-11-22T04:51:04;41.45;37.18;21.64
50587;PMS7003;70782;50.514;30.816;2023-11-22T04:52:07;38.80;34.20;21.10
50587;PMS7003;70782;50.514;30.816;2023-11-22T04:53:12;38.60;34.40;23.20
50587;PMS7003;70782;50.514;30.816;2023-11-22T04:54:15;38.20;36.40;21.30
50587;PMS7003;70782;50.514;30.816;2023-11-22T04:55:17;37.40;34.20;21.00
50587;PMS7003;70782;50.514;30.816;2023-11-22T04:56:20;37.00;35.40;20.90
50587;PMS7003;70782;50.514;30.816;2023-11-22T04:57:23;39.30;32.00;19.60
50587;PMS7003;70782;50.514;30.816;2023-11-22T04:58:25;38.80;35.90;22.60
50587;PMS7003;70782;50.514;30.816;2023-11-22T04:59:28;37.50;35.00;20.40
50587;PMS7003;70782;50.514;30.816;2023-11-22T05:00:30;37.10;33.80;20.90
50587;PMS7003;70782;50.514;30.816;2023-11-22T05:01:33;36.18;34.91;21.82
50587;PMS7003;70782;50.514;30.816;2023-11-22T05:02:37;39.20;33.30;20.70
50587;PMS7003;70782;50.514;30.816;2023-11-22T05:03:40;35.90;33.60;21.90
50587;PMS7003;70782;50.514;30.816;2023-11-22T05:04:42;30.00;29.10;18.50
50587;PMS7003;70782;50.514;30.816;2023-11-22T05:05:45;36.20;31.50;21.30
50587;PMS7003;70782;50.514;30.816;2023-11-22T05:06:47;39.90;32.30;20.80
50587;PMS7003;70782;50.514;30.816;2023-11-22T05:07:50;36.40;34.60;22.80
50587;PMS7003;70782;50.514;30.816;2023-11-22T05:08:53;37.30;36.00;21.20
50587;PMS7003;70782;50.514;30.816;2023-11-22T05:09:55;35.70;33.20;21.10
50587;PMS7003;70782;50.514;30.816;2023-11-22T05:10:58;40.60;37.10;21.30
50587;PMS7003;70782;50.514;30.816;2023-11-22T05:12:00;40.10;34.10;20.80
50587;PMS7003;70782;50.514;30.816;2023-11-22T05:13:03;45.00;33.30;23.10
50587;PMS7003;70782;50.514;30.816;2023-11-22T05:14:05;39.40;36.50;22.90
50587;PMS7003;70782;50.514;30.816;2023-11-22T05:15:08;38.90;35.60;23.10
50587;PMS7003;70782;50.514;30.816;2023-11-22T05:16:11;42.40;36.10;23.10
50587;PMS7003;70782;50.514;30.816;2023-11-22T05:17:14;33.90;33.60;22.70
50587;PMS7003;70782;50.514;30.816;2023-11-22T05:18:16;39.40;35.70;21.70
50587;PMS7003;70782;50.514;30.816;2023-11-22T05:19:19;37.30;33.30;21.30
50587;PMS7003;70782;50.514;30.816;2023-11-22T05:20:22;43.18;37.45;22.73
50587;PMS7003;70782;50.514;30.816;2023-11-22T05:21:24;37.70;33.10;22.90
50587;PMS7003;70782;50.514;30.816;2023-11-22T05:22:27;41.00;35.40;20.90
50587;PMS7003;70782;50.514;30.816;2023-11-22T05:23:29;38.90;36.30;23.00
50587;PMS7003;70782;50.514;30.816;2023-11-22T05:24:32;37.90;32.60;20.60
50587;PMS7003;70782;50.514;30.816;2023-11-22T05:25:35;39.90;35.80;22.90
50587;PMS7003;70782;50.514;30.816;2023-11-22T05:26:37;42.30;34.80;20.80
50587;PMS7003;70782;50.514;30.816;2023-11-22T05:27:40;38.00;36.10;23.30
50587;PMS7003;70782;50.514;30.816;2023-11-22T05:28:42;39.70;35.20;21.20
50587;PMS7003;70782;50.514;30.816;2023-11-22T05:29:45;39.80;33.40;21.90
50587;PMS7003;70782;50.514;30.816;2023-11-22T05:30:50;38.00;33.10;21.60
50587;PMS7003;70782;50.514;30.816;2023-11-22T05:31:52;36.30;35.50;21.50
50587;PMS7003;70782;50.514;30.816;2023-11-22T05:32:54;38.40;35.40;22.70
50587;PMS7003;70782;50.514;30.816;2023-11-22T05:33:57;38.70;35.90;20.20
50587;PMS7003;70782;50.514;30.816;2023-11-22T05:34:59;40.00;35.70;21.60
50587;PMS7003;70782;50.514;30.816;2023-11-22T05:36:02;41.60;36.60;19.50
50587;PMS7003;70782;50.514;30.816;2023-11-22T05:37:05;41.00;37.50;23.30
50587;PMS7003;70782;50.514;30.816;2023-11-22T05:38:07;35.50;32.30;19.90
50587;PMS7003;70782;50.514;30.816;2023-11-22T05:39:10;38.90;34.90;22.10
50587;PMS7003;70782;50.514;30.816;2023-11-22T05:40:14;37.20;35.50;21.70
50587;PMS7003;70782;50.514;30.816;2023-11-22T05:41:17;34.70;32.20;21.40
50587;PMS7003;70782;50.514;30.816;2023-11-22T05:42:19;32.50;29.50;20.10
50587;PMS7003;70782;50.514;30.816;2023-11-22T05:43:21;33.90;32.30;20.90
50587;PMS7003;70782;50.514;30.816;2023-11-22T05:44:24;33.60;31.20;20.30
50587;PMS7003;70782;50.514;30.816;2023-11-22T05:45:26;33.20;31.80;20.80
50587;PMS7003;70782;50.514;30.816;2023-11-22T05:46:29;39.73;32.45;20.18
50587;PMS7003;70782;50.514;30.816;2023-11-22T05:47:32;29.60;27.10;16.50